sensor_id;sensor_type;location;lat;lon;timestamp;temperature;humidity
21734;DHT22;11029;47.820;10.534;2023-07-29T00:01:33;16.10;79.80
21734;DHT22;11029;47.820;10.534;2023-07-29T00:04:00;16.20;79.30
21734;DHT22;11029;47.820;10.534;2023-07-29T00:06:27;16.10;79.70
21734;DHT22;11029;47.820;10.534;2023-07-29T00:08:54;16.10;79.60
21734;DHT22;11029;47.820;10.534;2023-07-29T00:11:21;16.10;79.70
21734;DHT22;11029;47.820;10.534;2023-07-29T00:13:47;16.00;79.60
21734;DHT22;11029;47.820;10.534;2023-07-29T00:16:16;16.00;79.90
21734;DHT22;11029;47.820;10.534;2023-07-29T00:18:44;15.90;79.80
21734;DHT22;11029;47.820;10.534;2023-07-29T00:21:11;15.90;79.70
21734;DHT22;11029;47.820;10.534;2023-07-29T00:23:37;15.80;79.20
21734;DHT22;11029;47.820;10.534;2023-07-29T00:26:04;15.70;79.70
21734;DHT22;11029;47.820;10.534;2023-07-29T00:28:31;15.70;79.80
21734;DHT22;11029;47.820;10.534;2023-07-29T00:30:58;15.70;80.20
21734;DHT22;11029;47.820;10.534;2023-07-29T00:33:26;15.60;80.40
21734;DHT22;11029;47.820;10.534;2023-07-29T00:35:52;15.60;80.40
21734;DHT22;11029;47.820;10.534;2023-07-29T00:38:19;15.60;80.50
21734;DHT22;11029;47.820;10.534;2023-07-29T00:40:46;15.70;80.10
21734;DHT22;11029;47.820;10.534;2023-07-29T00:43:14;15.60;80.00
21734;DHT22;11029;47.820;10.534;2023-07-29T00:45:42;15.40;80.20
21734;DHT22;11029;47.820;10.534;2023-07-29T00:48:09;15.40;80.40
21734;DHT22;11029;47.820;10.534;2023-07-29T00:50:37;15.40;80.60
21734;DHT22;11029;47.820;10.534;2023-07-29T00:53:04;15.50;80.60
21734;DHT22;11029;47.820;10.534;2023-07-29T00:55:30;15.40;80.10
21734;DHT22;11029;47.820;10.534;2023-07-29T00:57:57;15.40;79.70
21734;DHT22;11029;47.820;10.534;2023-07-29T01:00:25;15.40;80.00
21734;DHT22;11029;47.820;10.534;2023-07-29T01:02:52;15.30;78.40
21734;DHT22;11029;47.820;10.534;2023-07-29T01:05:21;15.30;79.50
21734;DHT22;11029;47.820;10.534;2023-07-29T01:07:57;15.20;79.70
21734;DHT22;11029;47.820;10.534;2023-07-29T01:10:43;15.20;80.20
21734;DHT22;11029;47.820;10.534;2023-07-29T01:16:17;15.30;81.30
21734;DHT22;11029;47.820;10.534;2023-07-29T01:18:47;15.40;81.30
21734;DHT22;11029;47.820;10.534;2023-07-29T01:21:14;15.30;80.80
21734;DHT22;11029;47.820;10.534;2023-07-29T01:23:42;15.20;81.00
21734;DHT22;11029;47.820;10.534;2023-07-29T01:26:09;14.90;82.10
21734;DHT22;11029;47.820;10.534;2023-07-29T01:28:36;14.80;83.80
21734;DHT22;11029;47.820;10.534;2023-07-29T01:31:37;14.80;84.50
21734;DHT22;11029;47.820;10.534;2023-07-29T01:34:45;15.00;84.50
21734;DHT22;11029;47.820;10.534;2023-07-29T01:37:19;15.10;84.50
21734;DHT22;11029;47.820;10.534;2023-07-29T01:39:50;15.30;84.20
21734;DHT22;11029;47.820;10.534;2023-07-29T01:42:19;15.30;84.00
21734;DHT22;11029;47.820;10.534;2023-07-29T01:44:46;15.20;84.60
21734;DHT22;11029;47.820;10.534;2023-07-29T01:47:13;15.30;84.80
21734;DHT22;11029;47.820;10.534;2023-07-29T01:49:39;15.40;84.40
21734;DHT22;11029;47.820;10.534;2023-07-29T01:52:06;15.50;84.10
21734;DHT22;11029;47.820;10.534;2023-07-29T01:54:33;15.60;83.80
21734;DHT22;11029;47.820;10.534;2023-07-29T01:57:00;15.60;83.70
21734;DHT22;11029;47.820;10.534;2023-07-29T01:59:27;15.70;83.30
21734;DHT22;11029;47.820;10.534;2023-07-29T02:01:53;15.80;83.30
21734;DHT22;11029;47.820;10.534;2023-07-29T02:04:20;15.80;82.70
21734;DHT22;11029;47.820;10.534;2023-07-29T02:06:47;15.80;82.60
21734;DHT22;11029;47.820;10.534;2023-07-29T02:09:14;15.80;82.40
21734;DHT22;11029;47.820;10.534;2023-07-29T02:11:40;15.90;82.50
21734;DHT22;11029;47.820;10.534;2023-07-29T02:14:08;15.90;82.30
21734;DHT22;11029;47.820;10.534;2023-07-29T02:16:34;15.90;82.20
21734;DHT22;11029;47.820;10.534;2023-07-29T02:19:02;15.90;82.10
21734;DHT22;11029;47.820;10.534;2023-07-29T02:21:29;15.90;81.80
21734;DHT22;11029;47.820;10.534;2023-07-29T02:23:56;16.00;81.90
21734;DHT22;11029;47.820;10.534;2023-07-29T02:26:23;15.90;82.00
21734;DHT22;11029;47.820;10.534;2023-07-29T02:28:50;15.90;82.00
21734;DHT22;11029;47.820;10.534;2023-07-29T02:31:21;15.90;82.10
21734;DHT22;11029;47.820;10.534;2023-07-29T02:33:48;15.90;82.10
21734;DHT22;11029;47.820;10.534;2023-07-29T02:36:17;15.90;82.40
21734;DHT22;11029;47.820;10.534;2023-07-29T02:38:44;15.80;82.10
21734;DHT22;11029;47.820;10.534;2023-07-29T02:41:11;15.80;82.60
21734;DHT22;11029;47.820;10.534;2023-07-29T02:43:43;15.70;82.50
21734;DHT22;11029;47.820;10.534;2023-07-29T02:46:10;15.70;82.60
21734;DHT22;11029;47.820;10.534;2023-07-29T02:48:37;15.60;83.00
21734;DHT22;11029;47.820;10.534;2023-07-29T02:51:04;15.60;83.40
21734;DHT22;11029;47.820;10.534;2023-07-29T02:53:31;15.70;83.30
21734;DHT22;11029;47.820;10.534;2023-07-29T02:55:57;15.70;83.40
21734;DHT22;11029;47.820;10.534;2023-07-29T02:58:24;15.70;83.20
21734;DHT22;11029;47.820;10.534;2023-07-29T03:00:53;15.60;83.30
21734;DHT22;11029;47.820;10.534;2023-07-29T03:03:19;15.60;83.70
21734;DHT22;11029;47.820;10.534;2023-07-29T03:05:46;15.60;83.60
21734;DHT22;11029;47.820;10.534;2023-07-29T03:08:13;15.70;83.40
21734;DHT22;11029;47.820;10.534;2023-07-29T03:10:40;15.70;83.20
21734;DHT22;11029;47.820;10.534;2023-07-29T03:13:08;15.60;82.80
21734;DHT22;11029;47.820;10.534;2023-07-29T03:15:35;15.50;83.40
21734;DHT22;11029;47.820;10.534;2023-07-29T03:18:02;15.30;84.00
21734;DHT22;11029;47.820;10.534;2023-07-29T03:20:29;15.40;83.90
21734;DHT22;11029;47.820;10.534;2023-07-29T03:22:55;15.40;83.90
21734;DHT22;11029;47.820;10.534;2023-07-29T03:25:22;15.50;83.80
21734;DHT22;11029;47.820;10.534;2023-07-29T03:27:49;15.50;83.60
21734;DHT22;11029;47.820;10.534;2023-07-29T03:30:19;15.50;83.30
21734;DHT22;11029;47.820;10.534;2023-07-29T03:32:48;15.50;83.50
21734;DHT22;11029;47.820;10.534;2023-07-29T03:35:15;15.50;83.30
21734;DHT22;11029;47.820;10.534;2023-07-29T03:37:42;15.50;83.10
21734;DHT22;11029;47.820;10.534;2023-07-29T03:40:09;15.50;82.80
21734;DHT22;11029;47.820;10.534;2023-07-29T03:42:36;15.40;82.70
21734;DHT22;11029;47.820;10.534;2023-07-29T03:45:03;15.30;82.30
21734;DHT22;11029;47.820;10.534;2023-07-29T03:47:30;15.10;82.10
21734;DHT22;11029;47.820;10.534;2023-07-29T03:49:58;15.00;82.50
21734;DHT22;11029;47.820;10.534;2023-07-29T03:52:25;15.00;82.80
21734;DHT22;11029;47.820;10.534;2023-07-29T03:54:51;14.90;82.60
21734;DHT22;11029;47.820;10.534;2023-07-29T03:57:18;14.90;82.90
21734;DHT22;11029;47.820;10.534;2023-07-29T03:59:45;14.90;83.30
21734;DHT22;11029;47.820;10.534;2023-07-29T04:02:12;14.90;83.40
21734;DHT22;11029;47.820;10.534;2023-07-29T04:04:39;15.00;83.40
21734;DHT22;11029;47.820;10.534;2023-07-29T04:07:06;15.00;82.80
21734;DHT22;11029;47.820;10.534;2023-07-29T04:09:33;15.00;83.50
21734;DHT22;11029;47.820;10.534;2023-07-29T04:11:59;15.10;83.70
21734;DHT22;11029;47.820;10.534;2023-07-29T04:14:26;15.30;83.60
21734;DHT22;11029;47.820;10.534;2023-07-29T04:16:53;15.40;83.60
21734;DHT22;11029;47.820;10.534;2023-07-29T04:19:20;15.50;82.80
21734;DHT22;11029;47.820;10.534;2023-07-29T04:21:47;15.50;82.60
21734;DHT22;11029;47.820;10.534;2023-07-29T04:24:13;15.50;82.30
21734;DHT22;11029;47.820;10.534;2023-07-29T04:26:40;15.60;82.10
21734;DHT22;11029;47.820;10.534;2023-07-29T04:29:07;15.30;82.80
21734;DHT22;11029;47.820;10.534;2023-07-29T04:31:34;15.00;83.90
21734;DHT22;11029;47.820;10.534;2023-07-29T04:34:00;14.90;85.30
21734;DHT22;11029;47.820;10.534;2023-07-29T04:36:28;15.00;85.60
21734;DHT22;11029;47.820;10.534;2023-07-29T04:38:55;15.10;85.40
21734;DHT22;11029;47.820;10.534;2023-07-29T04:41:22;15.20;85.30
21734;DHT22;11029;47.820;10.534;2023-07-29T04:43:50;15.30;84.90
21734;DHT22;11029;47.820;10.534;2023-07-29T04:46:20;15.30;84.80
21734;DHT22;11029;47.820;10.534;2023-07-29T04:48:47;15.40;85.00
21734;DHT22;11029;47.820;10.534;2023-07-29T04:51:13;15.40;85.00
21734;DHT22;11029;47.820;10.534;2023-07-29T04:53:40;15.40;84.90
21734;DHT22;11029;47.820;10.534;2023-07-29T04:56:07;15.50;84.70
21734;DHT22;11029;47.820;10.534;2023-07-29T04:58:34;15.50;84.80
21734;DHT22;11029;47.820;10.534;2023-07-29T05:01:02;15.50;84.60
21734;DHT22;11029;47.820;10.534;2023-07-29T05:03:30;15.60;84.60
21734;DHT22;11029;47.820;10.534;2023-07-29T05:05:58;15.60;84.50
21734;DHT22;11029;47.820;10.534;2023-07-29T05:08:27;15.70;84.50
21734;DHT22;11029;47.820;10.534;2023-07-29T05:10:54;15.80;84.20
21734;DHT22;11029;47.820;10.534;2023-07-29T05:13:21;15.80;84.10
21734;DHT22;11029;47.820;10.534;2023-07-29T05:15:48;15.80;84.30
21734;DHT22;11029;47.820;10.534;2023-07-29T05:18:16;15.80;84.40
21734;DHT22;11029;47.820;10.534;2023-07-29T05:20:44;15.90;84.10
21734;DHT22;11029;47.820;10.534;2023-07-29T05:23:11;15.90;83.80
21734;DHT22;11029;47.820;10.534;2023-07-29T05:25:38;16.00;83.50
21734;DHT22;11029;47.820;10.534;2023-07-29T05:28:05;16.00;83.30
21734;DHT22;11029;47.820;10.534;2023-07-29T05:30:32;16.00;83.20
21734;DHT22;11029;47.820;10.534;2023-07-29T05:33:01;15.80;83.10
21734;DHT22;11029;47.820;10.534;2023-07-29T05:35:27;15.50;84.70
21734;DHT22;11029;47.820;10.534;2023-07-29T05:37:54;15.40;85.70
21734;DHT22;11029;47.820;10.534;2023-07-29T05:40:21;15.30;86.00
21734;DHT22;11029;47.820;10.534;2023-07-29T05:42:48;15.40;86.10
21734;DHT22;11029;47.820;10.534;2023-07-29T05:45:15;15.40;85.80
21734;DHT22;11029;47.820;10.534;2023-07-29T05:47:42;15.50;85.80
21734;DHT22;11029;47.820;10.534;2023-07-29T05:50:09;15.60;85.60
21734;DHT22;11029;47.820;10.534;2023-07-29T05:52:36;15.60;85.90
21734;DHT22;11029;47.820;10.534;2023-07-29T05:55:04;15.60;85.90
21734;DHT22;11029;47.820;10.534;2023-07-29T05:57:31;15.60;86.00
21734;DHT22;11029;47.820;10.534;2023-07-29T05:59:57;15.60;85.80
21734;DHT22;11029;47.820;10.534;2023-07-29T06:02:25;15.60;85.80
21734;DHT22;11029;47.820;10.534;2023-07-29T06:04:52;15.60;85.90
21734;DHT22;11029;47.820;10.534;2023-07-29T06:07:19;15.70;85.80
21734;DHT22;11029;47.820;10.534;2023-07-29T06:09:46;15.70;86.10
21734;DHT22;11029;47.820;10.534;2023-07-29T06:12:13;15.70;86.10
21734;DHT22;11029;47.820;10.534;2023-07-29T06:14:40;15.80;86.30
21734;DHT22;11029;47.820;10.534;2023-07-29T06:17:08;15.90;86.10
21734;DHT22;11029;47.820;10.534;2023-07-29T06:19:40;16.00;86.10
21734;DHT22;11029;47.820;10.534;2023-07-29T06:22:10;16.10;85.70
21734;DHT22;11029;47.820;10.534;2023-07-29T06:24:37;16.20;85.60
21734;DHT22;11029;47.820;10.534;2023-07-29T06:27:04;16.40;85.50
21734;DHT22;11029;47.820;10.534;2023-07-29T06:29:31;16.50;85.00
21734;DHT22;11029;47.820;10.534;2023-07-29T06:31:58;16.60;84.70
21734;DHT22;11029;47.820;10.534;2023-07-29T06:34:25;16.80;84.60
21734;DHT22;11029;47.820;10.534;2023-07-29T06:36:52;16.90;84.30
21734;DHT22;11029;47.820;10.534;2023-07-29T06:39:19;17.00;83.70
21734;DHT22;11029;47.820;10.534;2023-07-29T06:41:46;17.10;83.50
21734;DHT22;11029;47.820;10.534;2023-07-29T06:44:12;17.20;83.10
21734;DHT22;11029;47.820;10.534;2023-07-29T06:46:39;17.20;82.80
21734;DHT22;11029;47.820;10.534;2023-07-29T06:49:07;17.30;82.60
21734;DHT22;11029;47.820;10.534;2023-07-29T06:51:33;17.40;82.00
21734;DHT22;11029;47.820;10.534;2023-07-29T06:54:02;17.50;82.00
21734;DHT22;11029;47.820;10.534;2023-07-29T06:56:29;17.70;81.90
21734;DHT22;11029;47.820;10.534;2023-07-29T06:58:56;17.90;81.60
21734;DHT22;11029;47.820;10.534;2023-07-29T07:01:23;18.10;81.30
21734;DHT22;11029;47.820;10.534;2023-07-29T07:03:49;18.20;81.10
21734;DHT22;11029;47.820;10.534;2023-07-29T07:06:16;18.30;80.40
21734;DHT22;11029;47.820;10.534;2023-07-29T07:08:43;18.40;79.70
21734;DHT22;11029;47.820;10.534;2023-07-29T07:11:10;18.40;78.50
21734;DHT22;11029;47.820;10.534;2023-07-29T07:13:37;18.40;78.80
21734;DHT22;11029;47.820;10.534;2023-07-29T07:16:04;18.50;78.50
21734;DHT22;11029;47.820;10.534;2023-07-29T07:18:31;18.60;78.20
21734;DHT22;11029;47.820;10.534;2023-07-29T07:20:57;18.70;76.60
21734;DHT22;11029;47.820;10.534;2023-07-29T07:23:24;18.60;75.40
21734;DHT22;11029;47.820;10.534;2023-07-29T07:25:51;18.50;77.80
21734;DHT22;11029;47.820;10.534;2023-07-29T07:28:18;18.40;75.70
21734;DHT22;11029;47.820;10.534;2023-07-29T07:30:44;18.40;76.30
21734;DHT22;11029;47.820;10.534;2023-07-29T07:33:11;18.50;76.00
21734;DHT22;11029;47.820;10.534;2023-07-29T07:35:38;18.60;77.10
21734;DHT22;11029;47.820;10.534;2023-07-29T07:38:05;18.70;73.40
21734;DHT22;11029;47.820;10.534;2023-07-29T07:40:34;18.70;73.70
21734;DHT22;11029;47.820;10.534;2023-07-29T07:43:00;18.70;73.10
21734;DHT22;11029;47.820;10.534;2023-07-29T07:45:27;18.90;71.70
21734;DHT22;11029;47.820;10.534;2023-07-29T07:47:54;18.90;72.80
21734;DHT22;11029;47.820;10.534;2023-07-29T07:50:21;19.00;74.30
21734;DHT22;11029;47.820;10.534;2023-07-29T07:52:48;19.10;73.20
21734;DHT22;11029;47.820;10.534;2023-07-29T07:55:15;19.10;72.30
21734;DHT22;11029;47.820;10.534;2023-07-29T07:57:42;19.10;72.10
21734;DHT22;11029;47.820;10.534;2023-07-29T08:00:09;19.10;72.40
21734;DHT22;11029;47.820;10.534;2023-07-29T08:02:39;19.20;71.50
21734;DHT22;11029;47.820;10.534;2023-07-29T08:05:06;19.10;72.30
21734;DHT22;11029;47.820;10.534;2023-07-29T08:07:33;19.10;72.60
21734;DHT22;11029;47.820;10.534;2023-07-29T08:09:59;19.00;71.80
21734;DHT22;11029;47.820;10.534;2023-07-29T08:12:26;19.10;73.40
21734;DHT22;11029;47.820;10.534;2023-07-29T08:14:53;18.90;72.50
21734;DHT22;11029;47.820;10.534;2023-07-29T08:17:20;19.00;72.90
21734;DHT22;11029;47.820;10.534;2023-07-29T08:19:46;19.10;72.10
21734;DHT22;11029;47.820;10.534;2023-07-29T08:22:13;19.10;72.20
21734;DHT22;11029;47.820;10.534;2023-07-29T08:24:40;19.10;72.60
21734;DHT22;11029;47.820;10.534;2023-07-29T08:27:07;19.10;71.30
21734;DHT22;11029;47.820;10.534;2023-07-29T08:29:33;19.10;70.70
21734;DHT22;11029;47.820;10.534;2023-07-29T08:32:00;19.20;71.30
21734;DHT22;11029;47.820;10.534;2023-07-29T08:34:27;19.30;70.40
21734;DHT22;11029;47.820;10.534;2023-07-29T08:36:54;19.40;71.40
21734;DHT22;11029;47.820;10.534;2023-07-29T08:39:20;19.70;70.40
21734;DHT22;11029;47.820;10.534;2023-07-29T08:41:59;19.90;69.10
21734;DHT22;11029;47.820;10.534;2023-07-29T08:44:40;19.90;69.80
21734;DHT22;11029;47.820;10.534;2023-07-29T08:47:07;19.90;70.50
21734;DHT22;11029;47.820;10.534;2023-07-29T08:49:34;20.00;69.80
21734;DHT22;11029;47.820;10.534;2023-07-29T08:52:02;20.10;70.10
21734;DHT22;11029;47.820;10.534;2023-07-29T08:54:30;20.10;70.20
21734;DHT22;11029;47.820;10.534;2023-07-29T08:56:58;20.20;69.20
21734;DHT22;11029;47.820;10.534;2023-07-29T08:59:25;20.40;68.30
21734;DHT22;11029;47.820;10.534;2023-07-29T09:01:54;20.50;67.20
21734;DHT22;11029;47.820;10.534;2023-07-29T09:04:23;20.50;68.10
21734;DHT22;11029;47.820;10.534;2023-07-29T09:06:51;20.50;68.00
21734;DHT22;11029;47.820;10.534;2023-07-29T09:09:20;20.40;68.20
21734;DHT22;11029;47.820;10.534;2023-07-29T09:11:48;20.40;68.40
21734;DHT22;11029;47.820;10.534;2023-07-29T09:14:15;20.50;69.40
21734;DHT22;11029;47.820;10.534;2023-07-29T09:16:42;20.50;67.50
21734;DHT22;11029;47.820;10.534;2023-07-29T09:19:09;20.60;67.10
21734;DHT22;11029;47.820;10.534;2023-07-29T09:21:39;20.80;68.70
21734;DHT22;11029;47.820;10.534;2023-07-29T09:24:07;21.20;66.70
21734;DHT22;11029;47.820;10.534;2023-07-29T09:26:35;21.30;66.80
21734;DHT22;11029;47.820;10.534;2023-07-29T09:29:02;21.60;64.60
21734;DHT22;11029;47.820;10.534;2023-07-29T09:31:30;21.70;65.10
21734;DHT22;11029;47.820;10.534;2023-07-29T09:34:01;21.80;65.10
21734;DHT22;11029;47.820;10.534;2023-07-29T09:36:30;21.80;63.90
21734;DHT22;11029;47.820;10.534;2023-07-29T09:38:57;21.70;64.20
21734;DHT22;11029;47.820;10.534;2023-07-29T09:41:26;21.80;64.30
21734;DHT22;11029;47.820;10.534;2023-07-29T09:46:25;21.80;64.10
21734;DHT22;11029;47.820;10.534;2023-07-29T09:48:53;21.80;64.50
21734;DHT22;11029;47.820;10.534;2023-07-29T09:51:22;21.80;64.80
21734;DHT22;11029;47.820;10.534;2023-07-29T09:53:50;21.80;65.60
21734;DHT22;11029;47.820;10.534;2023-07-29T09:56:18;21.90;65.80
21734;DHT22;11029;47.820;10.534;2023-07-29T09:58:51;21.80;63.70
21734;DHT22;11029;47.820;10.534;2023-07-29T10:01:18;21.80;64.00
21734;DHT22;11029;47.820;10.534;2023-07-29T10:03:45;21.70;63.80
21734;DHT22;11029;47.820;10.534;2023-07-29T10:06:13;21.70;64.10
21734;DHT22;11029;47.820;10.534;2023-07-29T10:08:40;21.60;63.90
21734;DHT22;11029;47.820;10.534;2023-07-29T10:11:09;21.50;62.30
21734;DHT22;11029;47.820;10.534;2023-07-29T10:13:37;21.50;62.50
21734;DHT22;11029;47.820;10.534;2023-07-29T10:16:04;21.50;62.80
21734;DHT22;11029;47.820;10.534;2023-07-29T10:18:32;21.50;62.40
21734;DHT22;11029;47.820;10.534;2023-07-29T10:21:01;21.60;62.80
21734;DHT22;11029;47.820;10.534;2023-07-29T10:23:32;21.60;61.70
21734;DHT22;11029;47.820;10.534;2023-07-29T10:26:05;21.60;62.00
21734;DHT22;11029;47.820;10.534;2023-07-29T10:28:33;21.60;60.90
21734;DHT22;11029;47.820;10.534;2023-07-29T10:31:03;21.60;61.90
21734;DHT22;11029;47.820;10.534;2023-07-29T10:33:32;21.70;60.10
21734;DHT22;11029;47.820;10.534;2023-07-29T10:36:00;21.80;60.90
21734;DHT22;11029;47.820;10.534;2023-07-29T10:38:27;21.90;61.20
21734;DHT22;11029;47.820;10.534;2023-07-29T10:40:56;22.10;62.30
21734;DHT22;11029;47.820;10.534;2023-07-29T10:43:27;22.30;59.40
21734;DHT22;11029;47.820;10.534;2023-07-29T10:45:55;22.30;60.10
21734;DHT22;11029;47.820;10.534;2023-07-29T10:48:41;22.50;60.50
21734;DHT22;11029;47.820;10.534;2023-07-29T10:53:57;22.40;59.60
21734;DHT22;11029;47.820;10.534;2023-07-29T10:56:26;22.20;57.10
21734;DHT22;11029;47.820;10.534;2023-07-29T11:01:58;22.10;58.10
21734;DHT22;11029;47.820;10.534;2023-07-29T11:04:29;22.10;59.20
21734;DHT22;11029;47.820;10.534;2023-07-29T11:15:18;22.40;58.70
21734;DHT22;11029;47.820;10.534;2023-07-29T11:17:59;22.50;59.30
21734;DHT22;11029;47.820;10.534;2023-07-29T11:20:28;22.20;59.00
21734;DHT22;11029;47.820;10.534;2023-07-29T11:22:56;22.20;60.10
21734;DHT22;11029;47.820;10.534;2023-07-29T11:25:24;22.20;59.70
21734;DHT22;11029;47.820;10.534;2023-07-29T11:27:53;22.30;61.50
21734;DHT22;11029;47.820;10.534;2023-07-29T11:30:21;22.50;60.10
21734;DHT22;11029;47.820;10.534;2023-07-29T11:32:49;22.40;59.80
21734;DHT22;11029;47.820;10.534;2023-07-29T11:35:17;22.50;59.40
21734;DHT22;11029;47.820;10.534;2023-07-29T11:37:47;22.60;60.10
21734;DHT22;11029;47.820;10.534;2023-07-29T11:40:15;22.90;60.70
21734;DHT22;11029;47.820;10.534;2023-07-29T11:42:42;23.20;58.00
21734;DHT22;11029;47.820;10.534;2023-07-29T11:45:10;23.30;59.30
21734;DHT22;11029;47.820;10.534;2023-07-29T11:47:37;23.40;58.20
21734;DHT22;11029;47.820;10.534;2023-07-29T11:50:08;23.30;58.60
21734;DHT22;11029;47.820;10.534;2023-07-29T11:52:42;23.10;58.70
21734;DHT22;11029;47.820;10.534;2023-07-29T11:55:09;23.00;59.10
21734;DHT22;11029;47.820;10.534;2023-07-29T11:57:37;23.00;59.60
21734;DHT22;11029;47.820;10.534;2023-07-29T12:00:08;23.30;61.70
21734;DHT22;11029;47.820;10.534;2023-07-29T12:02:38;23.50;56.70
21734;DHT22;11029;47.820;10.534;2023-07-29T12:05:06;23.30;57.50
21734;DHT22;11029;47.820;10.534;2023-07-29T12:07:35;23.40;56.60
21734;DHT22;11029;47.820;10.534;2023-07-29T12:10:03;23.40;58.70
21734;DHT22;11029;47.820;10.534;2023-07-29T12:12:30;23.30;58.50
21734;DHT22;11029;47.820;10.534;2023-07-29T12:14:57;23.20;57.40
21734;DHT22;11029;47.820;10.534;2023-07-29T12:17:24;23.40;58.10
21734;DHT22;11029;47.820;10.534;2023-07-29T12:19:54;23.60;56.10
21734;DHT22;11029;47.820;10.534;2023-07-29T12:22:21;23.60;58.20
21734;DHT22;11029;47.820;10.534;2023-07-29T12:24:50;23.70;56.10
21734;DHT22;11029;47.820;10.534;2023-07-29T12:27:18;23.50;56.30
21734;DHT22;11029;47.820;10.534;2023-07-29T12:29:46;23.40;58.30
21734;DHT22;11029;47.820;10.534;2023-07-29T12:32:15;23.50;58.10
21734;DHT22;11029;47.820;10.534;2023-07-29T12:34:42;23.80;57.90
21734;DHT22;11029;47.820;10.534;2023-07-29T12:37:08;23.80;56.70
21734;DHT22;11029;47.820;10.534;2023-07-29T12:39:40;23.90;57.00
21734;DHT22;11029;47.820;10.534;2023-07-29T12:42:08;23.90;56.40
21734;DHT22;11029;47.820;10.534;2023-07-29T12:44:36;23.80;55.50
21734;DHT22;11029;47.820;10.534;2023-07-29T12:47:05;23.90;55.30
21734;DHT22;11029;47.820;10.534;2023-07-29T12:49:32;23.80;54.50
21734;DHT22;11029;47.820;10.534;2023-07-29T12:52:00;23.80;55.70
21734;DHT22;11029;47.820;10.534;2023-07-29T12:54:27;23.90;54.70
21734;DHT22;11029;47.820;10.534;2023-07-29T12:56:54;23.70;54.10
21734;DHT22;11029;47.820;10.534;2023-07-29T12:59:20;23.30;56.00
21734;DHT22;11029;47.820;10.534;2023-07-29T13:01:47;23.40;55.70
21734;DHT22;11029;47.820;10.534;2023-07-29T13:04:14;23.60;55.00
21734;DHT22;11029;47.820;10.534;2023-07-29T13:06:41;23.60;56.30
21734;DHT22;11029;47.820;10.534;2023-07-29T13:09:08;23.60;54.80
21734;DHT22;11029;47.820;10.534;2023-07-29T13:11:35;23.50;55.20
21734;DHT22;11029;47.820;10.534;2023-07-29T13:14:02;23.40;55.40
21734;DHT22;11029;47.820;10.534;2023-07-29T13:16:28;23.30;55.50
21734;DHT22;11029;47.820;10.534;2023-07-29T13:18:56;23.10;56.10
21734;DHT22;11029;47.820;10.534;2023-07-29T13:21:23;23.00;57.10
21734;DHT22;11029;47.820;10.534;2023-07-29T13:23:51;22.90;57.20
21734;DHT22;11029;47.820;10.534;2023-07-29T13:26:18;22.80;57.00
21734;DHT22;11029;47.820;10.534;2023-07-29T13:28:45;22.70;57.10
21734;DHT22;11029;47.820;10.534;2023-07-29T13:31:12;22.50;58.00
21734;DHT22;11029;47.820;10.534;2023-07-29T13:33:39;22.40;59.10
21734;DHT22;11029;47.820;10.534;2023-07-29T13:36:06;22.40;59.30
21734;DHT22;11029;47.820;10.534;2023-07-29T13:38:35;22.30;60.00
21734;DHT22;11029;47.820;10.534;2023-07-29T13:41:02;22.30;59.60
21734;DHT22;11029;47.820;10.534;2023-07-29T13:43:29;22.30;59.90
21734;DHT22;11029;47.820;10.534;2023-07-29T13:45:56;22.30;59.80
21734;DHT22;11029;47.820;10.534;2023-07-29T13:48:23;22.30;60.00
21734;DHT22;11029;47.820;10.534;2023-07-29T13:50:49;22.20;59.60
21734;DHT22;11029;47.820;10.534;2023-07-29T13:53:17;22.20;59.50
21734;DHT22;11029;47.820;10.534;2023-07-29T13:55:44;22.20;60.00
21734;DHT22;11029;47.820;10.534;2023-07-29T13:58:11;22.10;60.30
21734;DHT22;11029;47.820;10.534;2023-07-29T14:00:38;22.10;61.20
21734;DHT22;11029;47.820;10.534;2023-07-29T14:03:04;22.10;61.10
21734;DHT22;11029;47.820;10.534;2023-07-29T14:05:31;22.00;60.60
21734;DHT22;11029;47.820;10.534;2023-07-29T14:07:58;22.00;60.20
21734;DHT22;11029;47.820;10.534;2023-07-29T14:10:25;21.90;60.90
21734;DHT22;11029;47.820;10.534;2023-07-29T14:12:52;21.80;61.80
21734;DHT22;11029;47.820;10.534;2023-07-29T14:15:19;21.70;62.50
21734;DHT22;11029;47.820;10.534;2023-07-29T14:17:45;21.70;61.20
21734;DHT22;11029;47.820;10.534;2023-07-29T14:20:13;21.60;61.30
21734;DHT22;11029;47.820;10.534;2023-07-29T14:22:40;21.60;61.40
21734;DHT22;11029;47.820;10.534;2023-07-29T14:25:07;21.60;62.00
21734;DHT22;11029;47.820;10.534;2023-07-29T14:27:33;21.50;61.90
21734;DHT22;11029;47.820;10.534;2023-07-29T14:30:00;21.40;62.10
21734;DHT22;11029;47.820;10.534;2023-07-29T14:32:28;21.50;62.90
21734;DHT22;11029;47.820;10.534;2023-07-29T14:34:55;21.40;62.90
21734;DHT22;11029;47.820;10.534;2023-07-29T14:37:21;21.40;63.20
21734;DHT22;11029;47.820;10.534;2023-07-29T14:39:48;21.40;63.20
21734;DHT22;11029;47.820;10.534;2023-07-29T14:42:15;21.40;63.60
21734;DHT22;11029;47.820;10.534;2023-07-29T14:44:42;21.50;62.80
21734;DHT22;11029;47.820;10.534;2023-07-29T14:47:09;21.40;63.70
21734;DHT22;11029;47.820;10.534;2023-07-29T14:49:35;21.50;64.50
21734;DHT22;11029;47.820;10.534;2023-07-29T14:52:02;21.50;64.80
21734;DHT22;11029;47.820;10.534;2023-07-29T14:54:29;21.60;65.10
21734;DHT22;11029;47.820;10.534;2023-07-29T14:56:56;21.50;65.10
21734;DHT22;11029;47.820;10.534;2023-07-29T14:59:23;21.40;65.90
21734;DHT22;11029;47.820;10.534;2023-07-29T15:01:50;21.30;63.00
21734;DHT22;11029;47.820;10.534;2023-07-29T15:04:17;21.10;65.50
21734;DHT22;11029;47.820;10.534;2023-07-29T15:06:43;21.00;64.70
21734;DHT22;11029;47.820;10.534;2023-07-29T15:09:10;20.80;64.10
21734;DHT22;11029;47.820;10.534;2023-07-29T15:11:37;20.60;66.90
21734;DHT22;11029;47.820;10.534;2023-07-29T15:14:04;20.30;69.50
21734;DHT22;11029;47.820;10.534;2023-07-29T15:16:30;20.10;71.60
21734;DHT22;11029;47.820;10.534;2023-07-29T15:18:58;20.00;70.80
21734;DHT22;11029;47.820;10.534;2023-07-29T15:21:25;19.50;71.80
21734;DHT22;11029;47.820;10.534;2023-07-29T15:23:52;19.30;73.20
21734;DHT22;11029;47.820;10.534;2023-07-29T15:26:18;19.20;73.10
21734;DHT22;11029;47.820;10.534;2023-07-29T15:28:45;19.00;73.50
21734;DHT22;11029;47.820;10.534;2023-07-29T15:31:12;18.80;75.70
21734;DHT22;11029;47.820;10.534;2023-07-29T15:33:40;18.70;76.60
21734;DHT22;11029;47.820;10.534;2023-07-29T15:36:06;18.50;76.60
21734;DHT22;11029;47.820;10.534;2023-07-29T15:38:33;18.40;76.20